createdAt,value
2022-11-19T00:02:52.261Z,5.90
2022-11-19T00:08:08.190Z,5.90
2022-11-19T00:13:16.438Z,6.00
2022-11-19T00:18:22.021Z,5.90
2022-11-19T00:23:26.669Z,6.10
2022-11-19T00:28:33.252Z,6.00
2022-11-19T00:33:47.854Z,6.00
2022-11-19T00:38:58.847Z,5.90
2022-11-19T00:44:07.700Z,5.90
2022-11-19T00:49:15.296Z,5.90
2022-11-19T00:54:30.042Z,5.90
2022-11-19T00:59:33.967Z,5.80
2022-11-19T01:04:41.619Z,5.80
2022-11-19T01:09:45.059Z,5.90
2022-11-19T01:14:48.777Z,5.90
2022-11-19T01:19:53.097Z,6.00
2022-11-19T01:25:01.970Z,6.00
2022-11-19T01:30:06.088Z,6.00
2022-11-19T01:35:10.042Z,6.00
2022-11-19T01:40:18.489Z,6.10
2022-11-19T01:45:23.203Z,6.10
2022-11-19T01:50:26.821Z,6.20
2022-11-19T01:55:31.227Z,6.20
2022-11-19T02:00:36.232Z,6.20
2022-11-19T02:05:43.731Z,6.30
2022-11-19T02:10:47.828Z,6.20
2022-11-19T02:15:56.173Z,6.20
2022-11-19T02:21:08.982Z,6.20
2022-11-19T02:26:18.150Z,6.20
2022-11-19T02:31:26.019Z,6.20
2022-11-19T02:36:33.134Z,6.30
2022-11-19T02:41:40.195Z,6.20
2022-11-19T02:46:48.633Z,6.30
2022-11-19T02:51:54.854Z,6.30
2022-11-19T02:57:05.062Z,6.40
2022-11-19T03:02:31.941Z,6.30
2022-11-19T03:07:38.056Z,6.20
2022-11-19T03:13:01.633Z,6.20
2022-11-19T03:18:09.061Z,6.30
2022-11-19T03:23:13.041Z,6.30
2022-11-19T03:28:18.140Z,6.30
2022-11-19T03:33:23.681Z,6.30
2022-11-19T03:38:45.797Z,6.30
2022-11-19T03:43:50.948Z,6.30
2022-11-19T03:48:55.097Z,6.20
2022-11-19T03:54:17.946Z,6.30
2022-11-19T03:59:33.034Z,6.30
2022-11-19T04:04:43.875Z,6.20
2022-11-19T04:10:06.163Z,6.20
2022-11-19T04:15:10.544Z,6.20
2022-11-19T04:20:14.168Z,6.30
2022-11-19T04:25:25.876Z,6.10
2022-11-19T04:30:51.471Z,6.10
2022-11-19T04:35:54.643Z,6.10
2022-11-19T04:41:03.152Z,6.00
2022-11-19T04:46:07.328Z,6.00
2022-11-19T04:51:12.844Z,5.90
2022-11-19T04:56:19.100Z,5.90
2022-11-19T05:01:29.900Z,6.00
2022-11-19T05:06:38.279Z,6.00
2022-11-19T05:11:47.297Z,6.00
2022-11-19T05:17:06.598Z,6.00
2022-11-19T05:22:12.090Z,5.90
2022-11-19T05:27:17.425Z,5.70
2022-11-19T05:32:23.550Z,5.50
2022-11-19T05:37:34.628Z,5.50
2022-11-19T05:42:41.595Z,5.50
2022-11-19T05:47:52.117Z,5.40
2022-11-19T05:53:00.639Z,5.40
2022-11-19T05:58:05.957Z,5.30
2022-11-19T06:03:29.845Z,5.40
2022-11-19T06:08:34.315Z,5.40
2022-11-19T06:13:38.763Z,5.40
2022-11-19T06:18:43.616Z,5.40
2022-11-19T06:23:46.995Z,5.40
2022-11-19T06:28:58.335Z,5.50
2022-11-19T06:34:10.682Z,5.60
2022-11-19T06:39:32.228Z,5.60
2022-11-19T06:44:49.596Z,5.70
2022-11-19T06:49:54.974Z,5.70
2022-11-19T06:54:59.559Z,5.80
2022-11-19T07:00:05.356Z,5.80
2022-11-19T07:05:08.658Z,5.90
2022-11-19T07:10:13.669Z,6.10
2022-11-19T07:15:19.586Z,6.10
2022-11-19T07:20:24.936Z,6.20
2022-11-19T07:25:28.239Z,6.20
2022-11-19T07:30:36.746Z,6.30
2022-11-19T07:35:41.096Z,6.30
2022-11-19T07:40:47.424Z,6.40
2022-11-19T07:45:53.916Z,6.70
2022-11-19T07:51:09.745Z,6.90
2022-11-19T07:56:15.507Z,7.00
2022-11-19T08:01:22.533Z,7.00
2022-11-19T08:06:35.098Z,7.00
2022-11-19T08:11:43.191Z,7.10
2022-11-19T08:17:14.479Z,7.30
2022-11-19T08:22:20.605Z,7.40
2022-11-19T08:27:26.724Z,7.70
2022-11-19T08:32:34.913Z,8.00
2022-11-19T08:37:48.333Z,8.00
2022-11-19T08:43:07.425Z,8.20
2022-11-19T08:48:14.144Z,8.00
2022-11-19T08:53:20.150Z,7.90
2022-11-19T08:58:29.286Z,7.90
2022-11-19T09:03:35.127Z,8.10
2022-11-19T09:08:40.069Z,8.20
2022-11-19T09:13:43.349Z,8.20
2022-11-19T09:18:52.822Z,8.20
2022-11-19T09:23:59.717Z,8.20
2022-11-19T09:29:14.616Z,8.20
2022-11-19T09:34:23.847Z,8.30
2022-11-19T09:39:32.973Z,8.70
2022-11-19T09:44:51.637Z,8.90
2022-11-19T09:49:59.080Z,9.10
2022-11-19T09:55:05.485Z,9.10
2022-11-19T10:00:17.507Z,9.00
2022-11-19T10:05:22.041Z,8.80
2022-11-19T10:10:26.126Z,8.90
2022-11-19T10:15:39.241Z,8.90
2022-11-19T10:20:43.164Z,8.50
2022-11-19T10:25:58.085Z,8.20
2022-11-19T10:31:02.918Z,8.20
2022-11-19T10:36:07.442Z,7.90
2022-11-19T10:41:12.006Z,7.80
2022-11-19T10:46:23.642Z,7.90
2022-11-19T10:51:27.897Z,8.00
2022-11-19T10:56:33.916Z,8.20
2022-11-19T11:01:38.770Z,8.40
2022-11-19T11:06:42.346Z,8.60
2022-11-19T11:12:06.360Z,8.70
2022-11-19T11:17:13.932Z,8.80
2022-11-19T11:22:18.635Z,8.60
2022-11-19T11:27:29.351Z,8.60
2022-11-19T11:32:37.437Z,8.70
2022-11-19T11:37:42.366Z,8.80
2022-11-19T11:42:53.287Z,8.80
2022-11-19T11:48:11.253Z,8.70
2022-11-19T11:53:16.088Z,7.90
2022-11-19T11:58:24.048Z,7.50
2022-11-19T12:03:49.401Z,7.40
2022-11-19T12:09:36.295Z,7.70
2022-11-19T12:14:44.877Z,7.90
2022-11-19T12:19:50.543Z,7.90
2022-11-19T12:25:05.937Z,7.80
2022-11-19T12:30:18.315Z,7.80
2022-11-19T12:35:21.678Z,7.70
2022-11-19T12:40:36.489Z,7.60
2022-11-19T12:45:55.265Z,7.70
2022-11-19T12:50:59.848Z,7.90
2022-11-19T12:56:03.217Z,8.10
2022-11-19T13:01:08.015Z,8.70
2022-11-19T13:06:17.657Z,9.40
2022-11-19T13:11:27.284Z,9.50
2022-11-19T13:16:44.321Z,9.10
2022-11-19T13:21:52.498Z,8.50
2022-11-19T13:26:59.188Z,8.10
2022-11-19T13:32:07.868Z,7.80
2022-11-19T13:37:13.992Z,7.70
2022-11-19T13:42:37.061Z,7.70
2022-11-19T13:47:48.403Z,7.80
2022-11-19T13:53:12.821Z,7.90
2022-11-19T13:58:17.821Z,7.90
2022-11-19T14:03:22.071Z,7.90
2022-11-19T14:08:37.393Z,8.00
2022-11-19T14:13:43.247Z,7.90
2022-11-19T14:19:07.356Z,8.00
2022-11-19T14:24:44.642Z,8.00
2022-11-19T14:29:50.199Z,7.90
2022-11-19T14:34:55.897Z,8.00
2022-11-19T14:39:59.743Z,8.10
2022-11-19T14:45:05.004Z,8.10
2022-11-19T14:50:08.800Z,8.10
2022-11-19T14:55:16.108Z,8.00
2022-11-19T15:00:19.927Z,8.20
2022-11-19T15:05:25.933Z,8.20
2022-11-19T15:10:29.901Z,8.00
2022-11-19T15:15:41.311Z,7.80
2022-11-19T15:20:45.793Z,7.70
2022-11-19T15:25:51.936Z,7.50
2022-11-19T15:30:56.523Z,7.30
2022-11-19T15:36:04.752Z,7.30
2022-11-19T15:41:25.021Z,7.30
2022-11-19T15:46:30.801Z,7.30
2022-11-19T15:51:43.962Z,7.30
2022-11-19T15:56:49.703Z,7.50
2022-11-19T16:01:53.133Z,7.50
2022-11-19T16:06:56.577Z,7.50
2022-11-19T16:12:24.203Z,7.60
2022-11-19T16:17:44.626Z,7.50
2022-11-19T16:23:04.565Z,7.60
2022-11-19T16:28:21.579Z,7.60
2022-11-19T16:33:27.390Z,7.50
2022-11-19T16:38:32.111Z,7.50
2022-11-19T16:49:05.425Z,7.60
2022-11-19T16:54:11.345Z,7.50
2022-11-19T16:59:24.000Z,7.50
2022-11-19T17:04:29.989Z,7.50
2022-11-19T17:09:37.804Z,7.40
2022-11-19T17:14:45.472Z,7.40
2022-11-19T17:20:01.751Z,7.40
2022-11-19T17:25:05.442Z,7.40
2022-11-19T17:30:09.025Z,7.40
2022-11-19T17:35:16.050Z,7.40
2022-11-19T17:40:21.718Z,7.40
2022-11-19T17:45:26.822Z,7.40
2022-11-19T17:50:39.770Z,7.30
2022-11-19T17:55:43.652Z,7.10
2022-11-19T18:00:47.068Z,6.80
2022-11-19T18:06:05.726Z,6.70
2022-11-19T18:11:29.533Z,6.60
2022-11-19T18:16:38.430Z,6.60
2022-11-19T18:21:50.679Z,6.70
2022-11-19T18:26:55.833Z,6.70
2022-11-19T18:31:59.261Z,6.70
2022-11-19T18:37:04.454Z,6.60
2022-11-19T18:42:08.768Z,6.40
2022-11-19T18:47:20.373Z,6.30
2022-11-19T18:52:27.118Z,6.00
2022-11-19T18:57:30.651Z,5.90
2022-11-19T19:02:35.895Z,6.00
2022-11-19T19:07:38.895Z,6.00
2022-11-19T19:12:45.474Z,6.00
2022-11-19T19:17:49.746Z,6.00
2022-11-19T19:22:59.507Z,6.00
2022-11-19T19:28:04.620Z,6.00
2022-11-19T19:33:13.308Z,6.00
2022-11-19T19:38:16.511Z,6.00
2022-11-19T19:43:26.913Z,6.00
2022-11-19T19:48:31.458Z,6.00
2022-11-19T19:53:38.409Z,6.00
2022-11-19T19:58:43.731Z,6.00
2022-11-19T20:03:53.182Z,6.10
2022-11-19T20:08:58.756Z,6.10
2022-11-19T20:14:01.998Z,6.10
2022-11-19T20:19:09.605Z,6.30
2022-11-19T20:24:14.108Z,6.20
2022-11-19T20:29:18.720Z,6.20
2022-11-19T20:34:25.440Z,6.30
2022-11-19T20:39:30.486Z,6.30
2022-11-19T20:44:49.557Z,6.30
2022-11-19T20:50:02.077Z,6.30
2022-11-19T20:55:13.769Z,6.30
2022-11-19T21:00:19.057Z,6.20
2022-11-19T21:05:24.915Z,6.30
2022-11-19T21:10:29.855Z,6.30
2022-11-19T21:15:34.716Z,6.20
2022-11-19T21:20:39.880Z,6.20
2022-11-19T21:25:44.187Z,6.10
2022-11-19T21:30:57.123Z,6.00
2022-11-19T21:36:00.661Z,6.00
2022-11-19T21:41:14.469Z,5.90
2022-11-19T21:46:28.461Z,5.80
2022-11-19T21:51:35.509Z,5.80
2022-11-19T21:56:43.275Z,5.70
2022-11-19T22:01:55.101Z,5.60
2022-11-19T22:07:04.136Z,5.70
2022-11-19T22:12:13.587Z,5.70
2022-11-19T22:17:32.660Z,5.70
2022-11-19T22:22:43.243Z,5.60
2022-11-19T22:27:47.095Z,5.70
2022-11-19T22:32:50.714Z,5.60
2022-11-19T22:38:07.410Z,5.60
2022-11-19T22:43:23.780Z,5.60
2022-11-19T22:48:36.588Z,5.60
2022-11-19T22:53:42.501Z,5.50
2022-11-19T22:58:50.425Z,5.50
2022-11-19T23:04:03.483Z,5.50
2022-11-19T23:09:09.332Z,5.50
2022-11-19T23:14:19.062Z,5.50
2022-11-19T23:19:33.975Z,5.40
2022-11-19T23:24:49.204Z,5.40
2022-11-19T23:30:00.613Z,5.50
2022-11-19T23:35:12.268Z,5.50
2022-11-19T23:40:24.218Z,5.50
2022-11-19T23:45:31.201Z,5.60
2022-11-19T23:50:45.160Z,5.60
2022-11-19T23:55:50.708Z,5.70
